Time,TemperatureF,DewpointF,PressureIn,WindDirection,WindDirectionDegrees,WindSpeedMPH,WindSpeedGustMPH,Humidity,HourlyPrecipIn,Conditions,Clouds,dailyrainin,SolarRadiationWatts/m^2,SoftwareType,DateUTC
2013-05-01 00:02:00,49.0,14.0,-100.00,SSW,209,2.0,4.0,24,0.00,,,-99.99,0.000000,,2013-05-01 06:02:00,
2013-05-01 00:12:00,49.0,14.0,-100.00,SSW,209,2.0,4.0,24,0.00,,,-99.99,0.000000,,2013-05-01 06:12:00,
2013-05-01 00:22:00,49.0,14.0,-100.00,SSW,209,2.0,4.0,24,0.00,,,-99.99,0.000000,,2013-05-01 06:22:00,
2013-05-01 00:42:00,50.0,22.0,-100.00,SSE,152,3.0,7.0,33,0.00,,,-99.99,0.000000,,2013-05-01 06:42:00,
2013-05-01 00:52:00,50.0,22.0,-100.00,SSE,152,3.0,7.0,33,0.00,,,-99.99,0.000000,,2013-05-01 06:52:00,
2013-05-01 01:01:00,50.0,22.0,-100.00,SSE,152,3.0,7.0,33,0.00,,,-99.99,0.000000,,2013-05-01 07:01:00,
2013-05-01 01:11:00,50.0,22.0,-100.00,SSE,152,3.0,7.0,33,0.00,,,-99.99,0.000000,,2013-05-01 07:11:00,
2013-05-01 01:21:00,50.0,22.0,-100.00,SSE,152,3.0,7.0,33,0.00,,,-99.99,0.000000,,2013-05-01 07:21:00,
2013-05-01 01:42:00,45.0,28.0,-100.00,NE,44,3.0,7.0,51,0.00,,,0.00,0.000000,,2013-05-01 07:42:00,
2013-05-01 01:52:00,45.0,28.0,-100.00,NE,44,3.0,7.0,51,0.00,,,0.00,0.000000,,2013-05-01 07:52:00,
2013-05-01 02:02:00,45.0,28.0,-100.00,NE,44,3.0,7.0,51,0.00,,,0.00,0.000000,,2013-05-01 08:02:00,
2013-05-01 02:11:00,45.0,28.0,-100.00,NE,44,3.0,7.0,51,0.00,,,0.00,0.000000,,2013-05-01 08:11:00,
2013-05-01 02:21:00,45.0,28.0,-100.00,NE,44,3.0,7.0,51,0.00,,,0.00,0.000000,,2013-05-01 08:21:00,
2013-05-01 02:42:00,42.0,30.0,-100.00,ENE,62,2.0,7.0,62,0.00,,,0.00,0.000000,,2013-05-01 08:42:00,
2013-05-01 02:53:00,42.0,30.0,-100.00,ENE,62,2.0,7.0,62,0.00,,,0.00,0.000000,,2013-05-01 08:53:00,
2013-05-01 03:01:00,42.0,30.0,-100.00,ENE,62,2.0,7.0,62,0.00,,,0.00,0.000000,,2013-05-01 09:01:00,
2013-05-01 03:12:00,42.0,30.0,-100.00,ENE,62,2.0,7.0,62,0.00,,,0.00,0.000000,,2013-05-01 09:12:00,
2013-05-01 03:21:00,42.0,30.0,-100.00,ENE,62,2.0,7.0,62,0.00,,,0.00,0.000000,,2013-05-01 09:21:00,
2013-05-01 03:43:00,37.0,29.0,-100.00,West,268,2.0,5.0,74,0.00,,,-99.99,0.000000,,2013-05-01 09:43:00,
2013-05-01 03:53:00,37.0,29.0,-100.00,West,268,2.0,5.0,74,0.00,,,-99.99,0.000000,,2013-05-01 09:53:00,
2013-05-01 04:02:00,37.0,29.0,-100.00,West,268,2.0,5.0,74,0.00,,,-99.99,0.000000,,2013-05-01 10:02:00,
2013-05-01 04:12:00,37.0,29.0,-100.00,West,268,2.0,5.0,74,0.00,,,-99.99,0.000000,,2013-05-01 10:12:00,
2013-05-01 04:22:00,37.0,29.0,-100.00,West,268,2.0,5.0,74,0.00,,,-99.99,0.000000,,2013-05-01 10:22:00,
2013-05-01 04:42:00,38.0,31.0,-100.00,SE,138,2.0,6.0,76,0.00,,,0.00,0.000000,,2013-05-01 10:42:00,
2013-05-01 04:53:00,38.0,31.0,-100.00,SE,138,2.0,6.0,76,0.00,,,0.00,0.000000,,2013-05-01 10:53:00,
2013-05-01 05:02:00,38.0,31.0,-100.00,SE,138,2.0,6.0,76,0.00,,,0.00,0.000000,,2013-05-01 11:02:00,
2013-05-01 05:11:00,38.0,31.0,-100.00,SE,138,2.0,6.0,76,0.00,,,0.00,0.000000,,2013-05-01 11:11:00,
2013-05-01 05:22:00,38.0,31.0,-100.00,SE,138,2.0,6.0,76,0.00,,,0.00,0.000000,,2013-05-01 11:22:00,
2013-05-01 05:42:00,37.0,31.0,-100.00,NNW,347,3.0,4.0,80,0.00,,,0.00,0.000000,,2013-05-01 11:42:00,
2013-05-01 05:52:00,37.0,31.0,-100.00,NNW,347,3.0,4.0,80,0.00,,,0.00,0.000000,,2013-05-01 11:52:00,
2013-05-01 06:01:00,37.0,31.0,-100.00,NNW,347,3.0,4.0,80,0.00,,,0.00,0.000000,,2013-05-01 12:01:00,
2013-05-01 06:11:00,37.0,31.0,-100.00,NNW,347,3.0,4.0,80,0.00,,,0.00,0.000000,,2013-05-01 12:11:00,
2013-05-01 06:21:00,37.0,31.0,-100.00,NNW,347,3.0,4.0,80,0.00,,,0.00,0.000000,,2013-05-01 12:21:00,
2013-05-01 06:42:00,33.0,31.0,-100.00,North,5,2.0,5.0,92,0.00,,,-99.99,1.000000,,2013-05-01 12:42:00,
2013-05-01 06:52:00,33.0,31.0,-100.00,North,5,2.0,5.0,92,0.00,,,-99.99,1.000000,,2013-05-01 12:52:00,
2013-05-01 07:01:00,33.0,31.0,-100.00,North,5,2.0,5.0,92,0.00,,,-99.99,1.000000,,2013-05-01 13:01:00,
2013-05-01 07:11:00,33.0,31.0,-100.00,North,5,2.0,5.0,92,0.00,,,-99.99,1.000000,,2013-05-01 13:11:00,
2013-05-01 07:21:00,33.0,31.0,-100.00,North,5,2.0,5.0,92,0.00,,,-99.99,1.000000,,2013-05-01 13:21:00,
2013-05-01 07:42:00,33.0,31.0,-100.00,NNE,29,2.0,3.0,91,0.00,,,0.00,20.000000,,2013-05-01 13:42:00,
2013-05-01 07:52:00,33.0,31.0,-100.00,NNE,29,2.0,3.0,91,0.00,,,0.00,20.000000,,2013-05-01 13:52:00,
2013-05-01 08:02:00,33.0,31.0,-100.00,NNE,29,2.0,3.0,91,0.00,,,0.00,20.000000,,2013-05-01 14:02:00,
2013-05-01 08:11:00,33.0,31.0,-100.00,NNE,29,2.0,3.0,91,0.00,,,0.00,20.000000,,2013-05-01 14:11:00,
2013-05-01 08:21:00,33.0,31.0,-100.00,NNE,29,2.0,3.0,91,0.00,,,0.00,20.000000,,2013-05-01 14:21:00,
2013-05-01 08:42:00,32.0,31.0,-100.00,SSW,192,2.0,3.0,96,0.00,,,-99.99,41.000000,,2013-05-01 14:42:00,
2013-05-01 08:52:00,32.0,31.0,-100.00,SSW,192,2.0,3.0,96,0.00,,,-99.99,41.000000,,2013-05-01 14:52:00,
2013-05-01 09:01:00,32.0,31.0,-100.00,SSW,192,2.0,3.0,96,0.00,,,-99.99,41.000000,,2013-05-01 15:01:00,
2013-05-01 09:11:00,32.0,31.0,-100.00,SSW,192,2.0,3.0,96,0.00,,,-99.99,41.000000,,2013-05-01 15:11:00,
2013-05-01 09:21:00,32.0,31.0,-100.00,SSW,192,2.0,3.0,96,0.00,,,-99.99,41.000000,,2013-05-01 15:21:00,
2013-05-01 09:43:00,31.0,29.0,-100.00,ENE,64,2.0,3.0,93,0.00,,,-99.99,23.000000,,2013-05-01 15:43:00,
2013-05-01 09:53:00,31.0,29.0,-100.00,ENE,64,2.0,3.0,93,0.00,,,-99.99,23.000000,,2013-05-01 15:53:00,
2013-05-01 10:03:00,31.0,29.0,-100.00,ENE,64,2.0,3.0,93,0.00,,,-99.99,23.000000,,2013-05-01 16:03:00,
2013-05-01 10:12:00,31.0,29.0,-100.00,ENE,64,2.0,3.0,93,0.00,,,-99.99,23.000000,,2013-05-01 16:12:00,
2013-05-01 10:22:00,31.0,29.0,-100.00,ENE,64,2.0,3.0,93,0.00,,,-99.99,23.000000,,2013-05-01 16:22:00,
2013-05-01 10:42:00,34.0,31.0,-100.00,West,276,1.0,3.0,87,0.00,,,0.00,34.000000,,2013-05-01 16:42:00,
2013-05-01 10:53:00,34.0,31.0,-100.00,West,276,1.0,3.0,87,0.00,,,0.00,34.000000,,2013-05-01 16:53:00,
2013-05-01 11:02:00,34.0,31.0,-100.00,West,276,1.0,3.0,87,0.00,,,0.00,34.000000,,2013-05-01 17:02:00,
2013-05-01 11:12:00,34.0,31.0,-100.00,West,276,1.0,3.0,87,0.00,,,0.00,34.000000,,2013-05-01 17:12:00,
2013-05-01 11:21:00,34.0,31.0,-100.00,West,276,1.0,3.0,87,0.00,,,0.00,34.000000,,2013-05-01 17:21:00,
2013-05-01 11:42:00,38.0,31.0,-100.00,SE,144,3.0,5.0,75,0.00,,,0.00,100.000000,,2013-05-01 17:42:00,
2013-05-01 11:52:00,38.0,31.0,-100.00,SE,144,3.0,5.0,75,0.00,,,0.00,100.000000,,2013-05-01 17:52:00,
2013-05-01 12:01:00,38.0,31.0,-100.00,SE,144,3.0,5.0,75,0.00,,,0.00,100.000000,,2013-05-01 18:01:00,
2013-05-01 12:11:00,38.0,31.0,-100.00,SE,144,3.0,5.0,75,0.00,,,0.00,100.000000,,2013-05-01 18:11:00,
2013-05-01 12:22:00,38.0,31.0,-100.00,SE,144,3.0,5.0,75,0.00,,,0.00,100.000000,,2013-05-01 18:22:00,
2013-05-01 12:42:00,39.0,31.0,-100.00,NE,35,2.0,5.0,72,0.00,,,0.00,430.000000,,2013-05-01 18:42:00,
2013-05-01 12:52:00,39.0,31.0,-100.00,NE,35,2.0,5.0,72,0.00,,,0.00,430.000000,,2013-05-01 18:52:00,
2013-05-01 13:02:00,39.0,31.0,-100.00,NE,35,2.0,5.0,72,0.00,,,0.00,430.000000,,2013-05-01 19:02:00,
2013-05-01 13:11:00,39.0,31.0,-100.00,NE,35,2.0,5.0,72,0.00,,,0.00,430.000000,,2013-05-01 19:11:00,
2013-05-01 13:22:00,39.0,31.0,-100.00,NE,35,2.0,5.0,72,0.00,,,0.00,430.000000,,2013-05-01 19:22:00,
2013-05-01 13:43:00,35.0,30.0,-100.00,North,349,3.0,4.0,81,0.10,,,0.10,273.000000,,2013-05-01 19:43:00,
2013-05-01 13:52:00,35.0,30.0,-100.00,North,349,3.0,4.0,81,0.10,,,0.10,273.000000,,2013-05-01 19:52:00,
2013-05-01 14:02:00,35.0,30.0,-100.00,North,349,3.0,4.0,81,0.10,,,0.10,273.000000,,2013-05-01 20:02:00,
2013-05-01 14:11:00,35.0,30.0,-100.00,North,349,3.0,4.0,81,0.10,,,0.10,273.000000,,2013-05-01 20:11:00,
2013-05-01 14:21:00,35.0,30.0,-100.00,North,349,3.0,4.0,81,0.10,,,0.10,273.000000,,2013-05-01 20:21:00,
2013-05-01 14:42:00,33.0,28.0,-100.00,NE,36,3.0,6.0,81,0.04,,,0.14,159.000000,,2013-05-01 20:42:00,
2013-05-01 14:52:00,33.0,28.0,-100.00,NE,36,3.0,6.0,81,0.04,,,0.14,159.000000,,2013-05-01 20:52:00,
2013-05-01 15:01:00,33.0,28.0,-100.00,NE,36,3.0,6.0,81,0.04,,,0.14,159.000000,,2013-05-01 21:01:00,
2013-05-01 15:11:00,33.0,28.0,-100.00,NE,36,3.0,6.0,81,0.04,,,0.14,159.000000,,2013-05-01 21:11:00,
2013-05-01 15:22:00,33.0,28.0,-100.00,NE,36,3.0,6.0,81,0.04,,,0.14,159.000000,,2013-05-01 21:22:00,
2013-05-01 15:23:00,30.0,25.0,-100.00,NNE,17,3.0,8.0,83,0.00,,,0.14,80.000000,,2013-05-01 21:23:00,
2013-05-01 15:43:00,30.0,25.0,-100.00,NNE,17,3.0,8.0,83,0.00,,,0.14,80.000000,,2013-05-01 21:43:00,
2013-05-01 15:53:00,30.0,25.0,-100.00,NNE,17,3.0,8.0,83,0.00,,,0.14,80.000000,,2013-05-01 21:53:00,
2013-05-01 16:03:00,30.0,25.0,-100.00,NNE,17,3.0,8.0,83,0.00,,,0.14,80.000000,,2013-05-01 22:03:00,
2013-05-01 16:12:00,30.0,25.0,-100.00,NNE,17,3.0,8.0,83,0.00,,,0.14,80.000000,,2013-05-01 22:12:00,
2013-05-01 16:42:00,27.0,23.0,-100.00,SE,135,2.0,8.0,83,0.00,,,0.14,129.000000,,2013-05-01 22:42:00,
2013-05-01 16:53:00,27.0,23.0,-100.00,SE,135,2.0,8.0,83,0.00,,,0.14,129.000000,,2013-05-01 22:53:00,
2013-05-01 17:02:00,27.0,23.0,-100.00,SE,135,2.0,8.0,83,0.00,,,0.14,129.000000,,2013-05-01 23:02:00,
2013-05-01 17:12:00,27.0,23.0,-100.00,SE,135,2.0,8.0,83,0.00,,,0.14,129.000000,,2013-05-01 23:12:00,
2013-05-01 17:21:00,27.0,23.0,-100.00,SE,135,2.0,8.0,83,0.00,,,0.14,129.000000,,2013-05-01 23:21:00,
2013-05-01 17:42:00,25.0,22.0,-100.00,SSE,167,3.0,5.0,87,0.00,,,0.14,87.000000,,2013-05-01 23:42:00,
2013-05-01 17:52:00,25.0,22.0,-100.00,SSE,167,3.0,5.0,87,0.00,,,0.14,87.000000,,2013-05-01 23:52:00,
2013-05-01 18:01:00,25.0,22.0,-100.00,SSE,167,3.0,5.0,87,0.00,,,0.14,87.000000,,2013-05-02 00:01:00,
2013-05-01 18:11:00,25.0,22.0,-100.00,SSE,167,3.0,5.0,87,0.00,,,0.14,87.000000,,2013-05-02 00:11:00,
2013-05-01 18:21:00,25.0,22.0,-100.00,SSE,167,3.0,5.0,87,0.00,,,0.14,87.000000,,2013-05-02 00:21:00,
2013-05-01 18:42:00,27.0,23.0,-100.00,South,175,1.0,4.0,83,0.00,,,0.14,58.000000,,2013-05-02 00:42:00,
2013-05-01 18:52:00,27.0,23.0,-100.00,South,175,1.0,4.0,83,0.00,,,0.14,58.000000,,2013-05-02 00:52:00,
2013-05-01 19:01:00,27.0,23.0,-100.00,South,175,1.0,4.0,83,0.00,,,0.14,58.000000,,2013-05-02 01:01:00,
2013-05-01 19:11:00,27.0,23.0,-100.00,South,175,1.0,4.0,83,0.00,,,0.14,58.000000,,2013-05-02 01:11:00,
2013-05-01 19:21:00,27.0,23.0,-100.00,South,175,1.0,4.0,83,0.00,,,0.14,58.000000,,2013-05-02 01:21:00,
2013-05-01 19:42:00,22.0,20.0,-100.00,SE,140,2.0,3.0,90,0.00,,,0.14,15.000000,,2013-05-02 01:42:00,
2013-05-01 19:52:00,22.0,20.0,-100.00,SE,140,2.0,3.0,90,0.00,,,0.14,15.000000,,2013-05-02 01:52:00,
2013-05-01 20:02:00,22.0,20.0,-100.00,SE,140,2.0,3.0,90,0.00,,,0.14,15.000000,,2013-05-02 02:02:00,
2013-05-01 20:12:00,22.0,20.0,-100.00,SE,140,2.0,3.0,90,0.00,,,0.14,15.000000,,2013-05-02 02:12:00,
2013-05-01 20:21:00,22.0,20.0,-100.00,SE,140,2.0,3.0,90,0.00,,,0.14,15.000000,,2013-05-02 02:21:00,
2013-05-01 21:01:00,21.0,19.0,-100.00,SSW,198,1.0,3.0,91,0.00,,,0.14,2.000000,,2013-05-02 03:01:00,
2013-05-01 21:11:00,21.0,19.0,-100.00,SSW,198,1.0,3.0,91,0.00,,,0.14,2.000000,,2013-05-02 03:11:00,
2013-05-01 21:22:00,21.0,19.0,-100.00,SSW,198,1.0,3.0,91,0.00,,,0.14,2.000000,,2013-05-02 03:22:00,
2013-05-01 21:23:00,20.0,18.0,-100.00,East,94,1.0,3.0,91,0.00,,,0.14,0.000000,,2013-05-02 03:23:00,
2013-05-01 21:43:00,20.0,18.0,-100.00,East,94,1.0,3.0,91,0.00,,,0.14,0.000000,,2013-05-02 03:43:00,
2013-05-01 21:53:00,20.0,18.0,-100.00,East,94,1.0,3.0,91,0.00,,,0.14,0.000000,,2013-05-02 03:53:00,
2013-05-01 22:03:00,20.0,18.0,-100.00,East,94,1.0,3.0,91,0.00,,,0.14,0.000000,,2013-05-02 04:03:00,
2013-05-01 22:12:00,20.0,18.0,-100.00,East,94,1.0,3.0,91,0.00,,,0.14,0.000000,,2013-05-02 04:12:00,
2013-05-01 22:43:00,19.0,17.0,-100.00,SSE,149,2.0,2.0,92,0.00,,,0.14,0.000000,,2013-05-02 04:43:00,
2013-05-01 22:52:00,19.0,17.0,-100.00,SSE,149,2.0,2.0,92,0.00,,,0.14,0.000000,,2013-05-02 04:52:00,
2013-05-01 23:02:00,19.0,17.0,-100.00,SSE,149,2.0,2.0,92,0.00,,,0.14,0.000000,,2013-05-02 05:02:00,
2013-05-01 23:12:00,19.0,17.0,-100.00,SSE,149,2.0,2.0,92,0.00,,,0.14,0.000000,,2013-05-02 05:12:00,
2013-05-01 23:22:00,19.0,17.0,-100.00,SSE,149,2.0,2.0,92,0.00,,,0.14,0.000000,,2013-05-02 05:22:00,
2013-05-01 23:42:00,19.0,17.0,-100.00,ESE,114,0.0,2.0,90,0.00,,,0.14,0.000000,,2013-05-02 05:42:00,
2013-05-01 23:52:00,19.0,17.0,-100.00,ESE,114,0.0,2.0,90,0.00,,,0.14,0.000000,,2013-05-02 05:52:00,